createdAt,value
2018-12-06T00:00:18.743Z,1011.39
2018-12-06T00:01:18.742Z,1011.35
2018-12-06T00:02:18.724Z,1011.36
2018-12-06T00:03:18.748Z,1011.38
2018-12-06T00:04:18.699Z,1011.36
2018-12-06T00:05:18.688Z,1011.33
2018-12-06T00:06:18.680Z,1011.35
2018-12-06T00:07:18.722Z,1011.32
2018-12-06T00:08:18.673Z,1011.33
2018-12-06T00:09:18.685Z,1011.32
2018-12-06T00:10:18.634Z,1011.30
2018-12-06T00:11:18.627Z,1011.33
2018-12-06T00:12:18.628Z,1011.34
2018-12-06T00:13:18.638Z,1011.32
2018-12-06T00:14:18.591Z,1011.30
2018-12-06T00:15:18.599Z,1011.31
2018-12-06T00:16:18.569Z,1011.31
2018-12-06T00:17:18.555Z,1011.37
2018-12-06T00:18:18.550Z,1011.35
2018-12-06T00:19:18.553Z,1011.38
2018-12-06T00:20:18.522Z,1011.32
2018-12-06T00:21:18.517Z,1011.28
2018-12-06T00:22:18.542Z,1011.28
2018-12-06T00:23:18.502Z,1011.26
2018-12-06T00:24:18.495Z,1011.26
2018-12-06T00:25:18.494Z,1011.30
2018-12-06T00:26:18.460Z,1011.26
2018-12-06T00:27:18.446Z,1011.30
2018-12-06T00:28:18.439Z,1011.34
2018-12-06T00:29:18.449Z,1011.37
2018-12-06T00:30:18.440Z,1011.34
2018-12-06T00:31:18.405Z,1011.35
2018-12-06T00:32:18.391Z,1011.30
2018-12-06T00:33:18.383Z,1011.29
2018-12-06T00:34:18.383Z,1011.30
2018-12-06T00:35:18.944Z,1011.22
2018-12-06T00:36:18.346Z,1011.29
2018-12-06T00:37:18.340Z,1011.29
2018-12-06T00:38:18.398Z,1011.31
2018-12-06T00:39:18.341Z,1011.29
2018-12-06T00:40:18.307Z,1011.24
2018-12-06T00:41:18.325Z,1011.20
2018-12-06T00:42:18.364Z,1011.25
2018-12-06T00:43:18.359Z,1011.22
2018-12-06T00:44:18.285Z,1011.24
2018-12-06T00:45:18.248Z,1011.27
2018-12-06T00:46:18.248Z,1011.31
2018-12-06T00:47:18.257Z,1011.31
2018-12-06T00:48:18.215Z,1011.30
2018-12-06T00:49:18.217Z,1011.26
2018-12-06T00:50:18.214Z,1011.24
2018-12-06T00:51:18.182Z,1011.26
2018-12-06T00:52:18.177Z,1011.26
2018-12-06T00:53:18.171Z,1011.24
2018-12-06T00:54:18.149Z,1011.24
2018-12-06T00:55:18.157Z,1011.25
2018-12-06T00:56:18.127Z,1011.23
2018-12-06T00:57:18.122Z,1011.24
2018-12-06T00:58:18.107Z,1011.24
2018-12-06T00:59:18.109Z,1011.24
2018-12-06T01:00:18.119Z,1011.25
2018-12-06T01:01:18.079Z,1011.19
2018-12-06T01:02:18.067Z,1011.22
2018-12-06T01:03:18.051Z,1011.21
2018-12-06T01:04:18.042Z,1011.13
2018-12-06T01:05:18.049Z,1011.22
2018-12-06T01:06:18.021Z,1011.17
2018-12-06T01:07:18.018Z,1011.15
2018-12-06T01:08:17.995Z,1011.24
2018-12-06T01:09:18.048Z,1011.19
2018-12-06T01:10:18.006Z,1011.22
2018-12-06T01:11:17.975Z,1011.17
2018-12-06T01:12:17.954Z,1011.13
2018-12-06T01:13:17.970Z,1011.16
2018-12-06T01:14:17.932Z,1011.17
2018-12-06T01:15:17.940Z,1011.19
2018-12-06T01:16:17.949Z,1011.15
2018-12-06T01:17:17.897Z,1011.14
2018-12-06T01:18:17.886Z,1011.15
2018-12-06T01:19:17.880Z,1011.12
2018-12-06T01:20:17.867Z,1011.12
2018-12-06T01:21:17.876Z,1011.16
2018-12-06T01:22:17.844Z,1011.23
2018-12-06T01:23:17.841Z,1011.24
2018-12-06T01:24:17.824Z,1011.22
2018-12-06T01:25:17.813Z,1011.22
2018-12-06T01:26:17.842Z,1011.20
2018-12-06T01:27:17.800Z,1011.23
2018-12-06T01:28:17.803Z,1011.27
2018-12-06T01:29:17.767Z,1011.28
2018-12-06T01:30:17.753Z,1011.30
2018-12-06T01:31:17.741Z,1011.23
2018-12-06T01:32:17.784Z,1011.24
2018-12-06T01:33:17.739Z,1011.22
2018-12-06T01:34:17.718Z,1011.25
2018-12-06T01:35:17.725Z,1011.27
2018-12-06T01:36:17.691Z,1011.27
2018-12-06T01:37:17.681Z,1011.26
2018-12-06T01:38:17.673Z,1011.25
2018-12-06T01:39:17.665Z,1011.27
2018-12-06T01:40:17.646Z,1011.23
2018-12-06T01:41:17.660Z,1011.25
2018-12-06T01:42:17.633Z,1011.26
2018-12-06T01:43:17.633Z,1011.24
2018-12-06T01:44:17.602Z,1011.26
2018-12-06T01:45:17.588Z,1011.21
2018-12-06T01:46:17.601Z,1011.22
2018-12-06T01:47:17.575Z,1011.19
2018-12-06T01:48:17.559Z,1011.24
2018-12-06T01:49:17.544Z,1011.20
2018-12-06T01:50:17.539Z,1011.14
2018-12-06T01:51:17.552Z,1011.17
2018-12-06T01:52:17.517Z,1011.21
2018-12-06T01:53:17.519Z,1011.20
2018-12-06T01:54:17.502Z,1011.15
2018-12-06T01:55:17.486Z,1011.16
2018-12-06T01:56:17.478Z,1011.17
2018-12-06T01:57:17.489Z,1011.14
2018-12-06T01:58:17.448Z,1011.16
2018-12-06T01:59:17.443Z,1011.19
2018-12-06T02:00:17.428Z,1011.16
2018-12-06T02:01:17.417Z,1011.13
2018-12-06T02:02:17.431Z,1011.12
2018-12-06T02:03:17.409Z,1011.11
2018-12-06T02:04:17.385Z,1011.14
2018-12-06T02:05:17.394Z,1011.16
2018-12-06T02:06:17.365Z,1011.09
2018-12-06T02:07:17.366Z,1011.06
2018-12-06T02:08:17.363Z,1011.04
2018-12-06T02:09:17.328Z,1011.10
2018-12-06T02:10:17.315Z,1011.02
2018-12-06T02:11:17.306Z,1011.00
2018-12-06T02:12:17.309Z,1010.99
2018-12-06T02:13:17.313Z,1010.98
2018-12-06T02:14:17.269Z,1010.90
2018-12-06T02:15:17.260Z,1010.95
2018-12-06T02:16:17.251Z,1010.85
2018-12-06T02:17:17.269Z,1010.89
2018-12-06T02:18:17.254Z,1010.83
2018-12-06T02:19:17.216Z,1010.88
2018-12-06T02:20:17.212Z,1010.92
2018-12-06T02:21:17.195Z,1010.88
2018-12-06T02:22:17.186Z,1010.92
2018-12-06T02:23:17.205Z,1010.94
2018-12-06T02:24:17.172Z,1010.92
2018-12-06T02:25:17.196Z,1010.95
2018-12-06T02:26:17.149Z,1010.90
2018-12-06T02:27:17.134Z,1010.92
2018-12-06T02:28:17.132Z,1010.97
2018-12-06T02:29:17.138Z,1010.93
2018-12-06T02:30:17.106Z,1010.95
2018-12-06T02:31:17.134Z,1010.93
2018-12-06T02:32:17.073Z,1010.94
2018-12-06T02:33:17.068Z,1010.92
2018-12-06T02:34:17.090Z,1010.97
2018-12-06T02:35:17.047Z,1010.90
2018-12-06T02:36:17.033Z,1010.94
2018-12-06T02:37:17.030Z,1010.96
2018-12-06T02:38:17.012Z,1010.99
2018-12-06T02:39:17.029Z,1011.00
2018-12-06T02:40:16.993Z,1011.01
2018-12-06T02:41:17.034Z,1011.00
2018-12-06T02:42:16.971Z,1011.04
2018-12-06T02:43:16.976Z,1010.99
2018-12-06T02:44:16.972Z,1011.08
2018-12-06T02:45:16.940Z,1011.09
2018-12-06T02:46:16.922Z,1011.13
2018-12-06T02:47:16.940Z,1011.10
2018-12-06T02:48:16.897Z,1011.10
2018-12-06T02:49:16.915Z,1011.06
2018-12-06T02:50:16.876Z,1011.16
2018-12-06T02:51:16.880Z,1011.26
2018-12-06T02:52:16.857Z,1011.20
2018-12-06T02:53:16.880Z,1011.24
2018-12-06T02:54:16.887Z,1011.19
2018-12-06T02:55:16.824Z,1011.23
2018-12-06T02:56:16.816Z,1011.22
2018-12-06T02:57:16.802Z,1011.14
2018-12-06T02:58:16.796Z,1011.20
2018-12-06T02:59:16.780Z,1011.18
2018-12-06T03:00:16.804Z,1011.16
2018-12-06T03:01:16.789Z,1011.17
2018-12-06T03:02:16.751Z,1011.17
2018-12-06T03:03:16.736Z,1011.17
2018-12-06T03:04:16.722Z,1011.18
2018-12-06T03:05:16.816Z,1011.17
2018-12-06T03:06:16.699Z,1011.16
2018-12-06T03:07:16.735Z,1011.21
2018-12-06T03:08:16.682Z,1011.24
2018-12-06T03:09:16.672Z,1011.19
2018-12-06T03:10:16.687Z,1011.19
2018-12-06T03:11:16.644Z,1011.13
2018-12-06T03:12:16.633Z,1011.17
2018-12-06T03:13:16.630Z,1011.13
2018-12-06T03:14:16.637Z,1011.14
2018-12-06T03:15:16.604Z,1011.10
2018-12-06T03:16:16.631Z,1011.11
2018-12-06T03:17:16.580Z,1011.14
2018-12-06T03:18:16.576Z,1011.08
2018-12-06T03:19:16.562Z,1011.10
2018-12-06T03:20:16.574Z,1011.01
2018-12-06T03:21:16.574Z,1011.03
2018-12-06T03:22:16.532Z,1010.94
2018-12-06T03:23:16.516Z,1010.86
2018-12-06T03:24:16.509Z,1010.85
2018-12-06T03:25:16.491Z,1010.82
2018-12-06T03:26:16.508Z,1010.82
2018-12-06T03:27:16.532Z,1010.79
2018-12-06T03:28:16.466Z,1010.79
2018-12-06T03:29:16.450Z,1010.74
2018-12-06T03:30:16.445Z,1010.76
2018-12-06T03:31:16.620Z,1010.78
2018-12-06T03:32:16.422Z,1010.84
2018-12-06T03:33:16.420Z,1010.88
2018-12-06T03:34:16.395Z,1010.91
2018-12-06T03:35:16.394Z,1010.85
2018-12-06T03:36:16.425Z,1010.85
2018-12-06T03:37:16.393Z,1010.86
2018-12-06T03:38:16.357Z,1010.83
2018-12-06T03:39:16.343Z,1010.80
2018-12-06T03:40:16.330Z,1010.80
2018-12-06T03:41:16.333Z,1010.81
2018-12-06T03:42:16.333Z,1010.82
2018-12-06T03:43:16.307Z,1010.79
2018-12-06T03:44:16.299Z,1010.81
2018-12-06T03:45:16.271Z,1010.83
2018-12-06T03:46:16.259Z,1010.85
2018-12-06T03:47:16.282Z,1010.85
2018-12-06T03:48:16.254Z,1010.77
2018-12-06T03:49:16.242Z,1010.81
2018-12-06T03:50:16.227Z,1010.80
2018-12-06T03:51:16.212Z,1010.81
2018-12-06T03:52:16.233Z,1010.80
2018-12-06T03:53:16.190Z,1010.83
2018-12-06T03:54:16.173Z,1010.86
2018-12-06T03:55:16.163Z,1010.89
2018-12-06T03:56:16.165Z,1010.89
2018-12-06T03:57:16.203Z,1010.96
2018-12-06T03:58:16.130Z,1010.95
2018-12-06T03:59:16.129Z,1010.95
2018-12-06T04:00:16.110Z,1010.92
2018-12-06T04:01:16.113Z,1010.89
2018-12-06T04:02:16.115Z,1010.84
2018-12-06T04:03:16.099Z,1010.82
2018-12-06T04:04:16.065Z,1010.79
2018-12-06T04:05:16.054Z,1010.88
2018-12-06T04:06:16.041Z,1010.87
2018-12-06T04:07:16.092Z,1010.94
2018-12-06T04:08:16.024Z,1010.93
2018-12-06T04:09:16.035Z,1010.97
2018-12-06T04:10:16.029Z,1010.96
2018-12-06T04:11:15.985Z,1010.93
2018-12-06T04:12:15.976Z,1010.92
2018-12-06T04:13:16.038Z,1010.93
2018-12-06T04:14:15.952Z,1010.99
2018-12-06T04:15:15.943Z,1010.99
2018-12-06T04:16:15.933Z,1010.99
2018-12-06T04:17:15.948Z,1010.97
2018-12-06T04:18:15.914Z,1010.98
2018-12-06T04:19:15.939Z,1011.03
2018-12-06T04:20:15.891Z,1010.98
2018-12-06T04:21:15.878Z,1011.04
2018-12-06T04:22:15.867Z,1011.06
2018-12-06T04:23:15.878Z,1011.12
2018-12-06T04:24:15.867Z,1011.19
2018-12-06T04:25:15.845Z,1011.17
2018-12-06T04:26:15.824Z,1011.20
2018-12-06T04:27:15.818Z,1011.18
2018-12-06T04:28:15.846Z,1011.18
2018-12-06T04:29:15.792Z,1011.15
2018-12-06T04:30:15.777Z,1011.16
2018-12-06T04:31:15.766Z,1011.17
2018-12-06T04:32:17.549Z,1011.29
2018-12-06T04:33:15.750Z,1011.29
2018-12-06T04:34:15.756Z,1011.32
2018-12-06T04:35:15.738Z,1011.41
2018-12-06T04:36:15.715Z,1011.39
2018-12-06T04:37:15.704Z,1011.38
2018-12-06T04:38:15.697Z,1011.42
2018-12-06T04:39:15.701Z,1011.37
2018-12-06T04:40:15.669Z,1011.47
2018-12-06T04:41:15.677Z,1011.44
2018-12-06T04:42:15.648Z,1011.42
2018-12-06T04:43:15.634Z,1011.40
2018-12-06T04:44:15.654Z,1011.42
2018-12-06T04:45:15.638Z,1011.43
2018-12-06T04:46:15.600Z,1011.42
2018-12-06T04:47:15.603Z,1011.40
2018-12-06T04:48:21.913Z,1011.36
2018-12-06T04:49:16.574Z,1011.40
2018-12-06T04:50:15.584Z,1011.45
2018-12-06T04:51:15.553Z,1011.44
2018-12-06T04:52:15.544Z,1011.39
2018-12-06T04:53:15.533Z,1011.35
2018-12-06T04:54:15.518Z,1011.37
2018-12-06T04:55:15.545Z,1011.33
2018-12-06T04:56:15.491Z,1011.38
2018-12-06T04:57:15.483Z,1011.36
2018-12-06T04:58:15.479Z,1011.42
2018-12-06T04:59:15.461Z,1011.32
2018-12-06T05:00:15.493Z,1011.36
2018-12-06T05:01:15.434Z,1011.33
2018-12-06T05:02:15.443Z,1011.32
2018-12-06T05:03:15.422Z,1011.25
2018-12-06T05:04:15.405Z,1011.28
2018-12-06T05:05:15.434Z,1011.23
2018-12-06T05:06:15.383Z,1011.25
2018-12-06T05:07:15.372Z,1011.29
2018-12-06T05:08:15.372Z,1011.23
2018-12-06T05:09:15.362Z,1011.30
2018-12-06T05:10:15.369Z,1011.27
2018-12-06T05:11:15.330Z,1011.29
2018-12-06T05:12:15.319Z,1011.24
2018-12-06T05:13:15.306Z,1011.29
2018-12-06T05:14:15.297Z,1011.32
2018-12-06T05:15:15.322Z,1011.39
2018-12-06T05:16:15.277Z,1011.41
2018-12-06T05:17:15.268Z,1011.41
2018-12-06T05:18:15.252Z,1011.39
2018-12-06T05:19:15.243Z,1011.38
2018-12-06T05:20:15.234Z,1011.33
2018-12-06T05:21:15.243Z,1011.41
2018-12-06T05:22:15.203Z,1011.43
2018-12-06T05:23:15.208Z,1011.43
2018-12-06T05:24:15.183Z,1011.42
2018-12-06T05:25:15.173Z,1011.46
2018-12-06T05:26:15.193Z,1011.43
2018-12-06T05:27:15.160Z,1011.41
2018-12-06T05:28:15.147Z,1011.48
2018-12-06T05:29:15.148Z,1011.49
2018-12-06T05:30:15.131Z,1011.46
2018-12-06T05:31:15.113Z,1011.49
2018-12-06T05:32:15.123Z,1011.41
2018-12-06T05:33:15.104Z,1011.45
2018-12-06T05:34:15.071Z,1011.39
2018-12-06T05:35:15.062Z,1011.33
2018-12-06T05:36:15.143Z,1011.31
2018-12-06T05:37:15.071Z,1011.28
2018-12-06T05:38:15.045Z,1011.24
2018-12-06T05:39:15.015Z,1011.26
2018-12-06T05:40:15.007Z,1011.21
2018-12-06T05:41:14.999Z,1011.17
2018-12-06T05:42:15.019Z,1011.19
2018-12-06T05:43:14.985Z,1011.15
2018-12-06T05:44:14.962Z,1011.22
2018-12-06T05:45:14.968Z,1011.29
2018-12-06T05:46:14.940Z,1011.29
2018-12-06T05:47:14.979Z,1011.37
2018-12-06T05:48:15.035Z,1011.47
2018-12-06T05:49:14.928Z,1011.49
2018-12-06T05:50:14.897Z,1011.49
2018-12-06T05:51:14.894Z,1011.41
2018-12-06T05:52:14.953Z,1011.40
2018-12-06T05:53:14.866Z,1011.37
2018-12-06T05:54:14.881Z,1011.37
2018-12-06T05:55:14.858Z,1011.37
2018-12-06T05:56:14.935Z,1011.49
2018-12-06T05:57:14.859Z,1011.46
2018-12-06T05:58:14.849Z,1011.50
2018-12-06T05:59:14.816Z,1011.50
2018-12-06T06:00:14.813Z,1011.48
2018-12-06T06:01:14.799Z,1011.45
2018-12-06T06:02:14.891Z,1011.46
2018-12-06T06:03:14.801Z,1011.39
2018-12-06T06:04:14.772Z,1011.42
2018-12-06T06:05:14.739Z,1011.42
2018-12-06T06:06:14.782Z,1011.40
2018-12-06T06:07:14.707Z,1011.51
2018-12-06T06:08:14.742Z,1011.55
2018-12-06T06:09:14.692Z,1011.64
2018-12-06T06:10:14.684Z,1011.73
2018-12-06T06:11:14.668Z,1011.71
2018-12-06T06:12:14.659Z,1011.75
2018-12-06T06:13:14.678Z,1011.77
2018-12-06T06:14:14.676Z,1011.86
2018-12-06T06:15:14.624Z,1011.86
2018-12-06T06:16:14.621Z,1011.87
2018-12-06T06:17:14.683Z,1011.86
2018-12-06T06:18:14.601Z,1011.86
2018-12-06T06:19:14.625Z,1011.86
2018-12-06T06:20:14.565Z,1011.87
2018-12-06T06:21:14.556Z,1011.83
2018-12-06T06:22:14.552Z,1011.82
2018-12-06T06:23:14.539Z,1011.83
2018-12-06T06:24:14.558Z,1011.80
2018-12-06T06:25:14.550Z,1011.79
2018-12-06T06:26:14.501Z,1011.89
2018-12-06T06:27:14.495Z,1011.93
2018-12-06T06:28:14.482Z,1012.00
2018-12-06T06:29:14.512Z,1012.03
2018-12-06T06:30:14.560Z,1012.07
2018-12-06T06:31:14.479Z,1012.09
2018-12-06T06:32:14.432Z,1012.05
2018-12-06T06:33:14.437Z,1012.04
2018-12-06T06:34:14.422Z,1012.03
2018-12-06T06:35:14.404Z,1012.06
2018-12-06T06:36:14.435Z,1012.08
2018-12-06T06:37:14.381Z,1012.14
2018-12-06T06:38:14.367Z,1012.14
2018-12-06T06:39:14.507Z,1012.16
2018-12-06T06:40:14.355Z,1012.19
2018-12-06T06:41:14.358Z,1012.17
2018-12-06T06:42:14.333Z,1012.23
2018-12-06T06:43:14.330Z,1012.26
2018-12-06T06:44:14.337Z,1012.30
2018-12-06T06:45:14.297Z,1012.27
2018-12-06T06:46:14.283Z,1012.27
2018-12-06T06:47:14.300Z,1012.26
2018-12-06T06:48:14.279Z,1012.25
2018-12-06T06:49:14.305Z,1012.27
2018-12-06T06:50:14.245Z,1012.30
2018-12-06T06:51:14.234Z,1012.33
2018-12-06T06:52:14.259Z,1012.37
2018-12-06T06:53:14.202Z,1012.38
2018-12-06T06:54:14.186Z,1012.38
2018-12-06T06:55:14.200Z,1012.44
2018-12-06T06:56:14.167Z,1012.45
2018-12-06T06:57:14.163Z,1012.43
2018-12-06T06:58:14.164Z,1012.48
2018-12-06T06:59:14.167Z,1012.43
2018-12-06T07:00:14.120Z,1012.41
2018-12-06T07:01:14.111Z,1012.37
2018-12-06T07:02:14.122Z,1012.43
2018-12-06T07:03:14.095Z,1012.36
2018-12-06T07:04:14.114Z,1012.33
2018-12-06T07:05:14.091Z,1012.32
2018-12-06T07:06:14.056Z,1012.35
2018-12-06T07:07:14.067Z,1012.33
2018-12-06T07:08:14.036Z,1012.35
2018-12-06T07:09:14.029Z,1012.37
2018-12-06T07:10:14.012Z,1012.36
2018-12-06T07:11:14.030Z,1012.35
2018-12-06T07:12:13.989Z,1012.37
2018-12-06T07:13:13.989Z,1012.36
2018-12-06T07:14:13.973Z,1012.45
2018-12-06T07:15:13.955Z,1012.47
2018-12-06T07:16:13.988Z,1012.54
2018-12-06T07:17:13.939Z,1012.54
2018-12-06T07:18:13.953Z,1012.53
2018-12-06T07:19:13.916Z,1012.53
2018-12-06T07:20:13.913Z,1012.57
2018-12-06T07:21:13.944Z,1012.63
2018-12-06T07:22:13.883Z,1012.72
2018-12-06T07:23:13.866Z,1012.75
2018-12-06T07:24:13.861Z,1012.75
2018-12-06T07:25:13.852Z,1012.75
2018-12-06T07:26:13.878Z,1012.69
2018-12-06T07:27:13.818Z,1012.73
2018-12-06T07:28:13.809Z,1012.79
2018-12-06T07:29:13.797Z,1012.81
2018-12-06T07:30:13.792Z,1012.78
2018-12-06T07:31:13.813Z,1012.89
2018-12-06T07:32:13.779Z,1012.82
2018-12-06T07:33:13.856Z,1012.80
2018-12-06T07:34:13.781Z,1012.84
2018-12-06T07:35:13.729Z,1012.83
2018-12-06T07:36:13.720Z,1012.84
2018-12-06T07:37:13.747Z,1012.89
2018-12-06T07:38:13.722Z,1012.89
2018-12-06T07:39:13.685Z,1012.86
2018-12-06T07:40:13.678Z,1012.87
2018-12-06T07:41:13.673Z,1012.85
2018-12-06T07:42:13.688Z,1012.83
2018-12-06T07:43:13.678Z,1012.87
2018-12-06T07:44:13.671Z,1012.87
2018-12-06T07:45:13.626Z,1012.88
2018-12-06T07:46:13.611Z,1012.91
2018-12-06T07:47:13.622Z,1012.96
2018-12-06T07:48:13.622Z,1012.94
2018-12-06T07:49:13.574Z,1012.87
2018-12-06T07:50:13.565Z,1012.85
2018-12-06T07:51:13.553Z,1012.90
2018-12-06T07:52:13.585Z,1012.91
2018-12-06T07:53:13.534Z,1012.88
2018-12-06T07:54:14.086Z,1012.90
2018-12-06T07:55:13.512Z,1012.88
2018-12-06T07:56:13.496Z,1012.85
2018-12-06T07:57:13.502Z,1012.82
2018-12-06T07:58:13.512Z,1012.79
2018-12-06T07:59:13.465Z,1012.74
2018-12-06T08:00:13.475Z,1012.73
2018-12-06T08:01:13.442Z,1012.78
2018-12-06T08:02:13.429Z,1012.72
2018-12-06T08:03:13.449Z,1012.77
2018-12-06T08:04:13.410Z,1012.79
2018-12-06T08:05:13.397Z,1012.78
2018-12-06T08:06:13.399Z,1012.81
2018-12-06T08:07:13.371Z,1012.81
2018-12-06T08:08:13.384Z,1012.74
2018-12-06T08:09:13.352Z,1012.74
2018-12-06T08:10:13.339Z,1012.76
2018-12-06T08:11:13.333Z,1012.75
2018-12-06T08:12:13.314Z,1012.77
2018-12-06T08:13:13.362Z,1012.75
2018-12-06T08:14:13.294Z,1012.77
2018-12-06T08:15:13.284Z,1012.79
2018-12-06T08:16:13.273Z,1012.84
2018-12-06T08:17:13.265Z,1012.83
2018-12-06T08:18:13.284Z,1012.83
2018-12-06T08:19:13.991Z,1012.83
2018-12-06T08:20:13.253Z,1012.82
2018-12-06T08:21:13.225Z,1012.74
2018-12-06T08:22:13.211Z,1012.77
2018-12-06T08:23:13.220Z,1012.73
2018-12-06T08:24:13.183Z,1012.72
2018-12-06T08:25:13.175Z,1012.78
2018-12-06T08:26:13.163Z,1012.79
2018-12-06T08:27:13.152Z,1012.73
2018-12-06T08:28:13.198Z,1012.77
2018-12-06T08:29:13.137Z,1012.75
2018-12-06T08:30:13.110Z,1012.77
2018-12-06T08:31:13.105Z,1012.75
2018-12-06T08:32:13.223Z,1012.77
2018-12-06T08:33:13.107Z,1012.82
2018-12-06T08:34:13.074Z,1012.81
2018-12-06T08:35:13.063Z,1012.79
2018-12-06T08:36:13.044Z,1012.80
2018-12-06T08:37:13.042Z,1012.83
2018-12-06T08:38:13.057Z,1012.78
2018-12-06T08:39:13.019Z,1012.75
2018-12-06T08:40:13.015Z,1012.78
2018-12-06T08:41:13.008Z,1012.71
2018-12-06T08:42:13.011Z,1012.74
2018-12-06T08:43:13.018Z,1012.77
2018-12-06T08:44:12.984Z,1012.79
2018-12-06T08:45:12.974Z,1012.81
2018-12-06T08:46:12.939Z,1012.80
2018-12-06T08:47:12.933Z,1012.83
2018-12-06T08:48:12.920Z,1012.82
2018-12-06T08:49:12.953Z,1012.81
2018-12-06T08:50:12.925Z,1012.84
2018-12-06T08:51:12.880Z,1012.85
2018-12-06T08:52:12.874Z,1012.84
2018-12-06T08:53:12.857Z,1012.86
2018-12-06T08:54:13.857Z,1012.86
2018-12-06T08:55:12.839Z,1012.84
2018-12-06T08:56:12.839Z,1012.89
2018-12-06T08:57:12.812Z,1012.89
2018-12-06T08:58:12.799Z,1012.87
2018-12-06T08:59:12.833Z,1012.83
2018-12-06T09:00:12.783Z,1012.87
2018-12-06T09:01:12.775Z,1012.91
2018-12-06T09:02:12.789Z,1012.97
2018-12-06T09:03:12.743Z,1012.98
2018-12-06T09:04:12.736Z,1012.98
2018-12-06T09:05:12.749Z,1012.89
2018-12-06T09:06:12.771Z,1012.87
2018-12-06T09:07:12.709Z,1012.85
2018-12-06T09:08:12.686Z,1012.88
2018-12-06T09:09:12.689Z,1012.98
2018-12-06T09:10:12.665Z,1013.09
2018-12-06T09:11:12.684Z,1013.08
2018-12-06T09:12:12.650Z,1013.06
2018-12-06T09:13:12.631Z,1013.02
2018-12-06T09:14:12.625Z,1013.08
2018-12-06T09:15:12.619Z,1013.05
2018-12-06T09:16:12.651Z,1013.04
2018-12-06T09:17:12.636Z,1013.05
2018-12-06T09:18:12.587Z,1013.04
2018-12-06T09:19:12.569Z,1013.06
2018-12-06T09:20:12.555Z,1013.10
2018-12-06T09:21:12.585Z,1013.12
2018-12-06T09:22:12.536Z,1013.21
2018-12-06T09:23:12.524Z,1013.24
2018-12-06T09:24:12.516Z,1013.22
2018-12-06T09:25:12.530Z,1013.12
2018-12-06T09:26:12.522Z,1013.19
2018-12-06T09:27:12.475Z,1013.17
2018-12-06T09:28:12.462Z,1013.15
2018-12-06T09:29:12.555Z,1013.16
2018-12-06T09:30:12.446Z,1013.19
2018-12-06T09:31:12.467Z,1013.21
2018-12-06T09:32:12.447Z,1013.21
2018-12-06T09:33:12.419Z,1013.18
2018-12-06T09:34:12.400Z,1013.18
2018-12-06T09:35:12.392Z,1013.22
2018-12-06T09:36:12.412Z,1013.24
2018-12-06T09:37:12.449Z,1013.19
2018-12-06T09:38:12.398Z,1013.16
2018-12-06T09:39:12.355Z,1013.15
2018-12-06T09:40:12.329Z,1013.16
2018-12-06T09:41:12.323Z,1013.18
2018-12-06T09:42:12.341Z,1013.17
2018-12-06T09:43:12.302Z,1013.26
2018-12-06T09:44:12.329Z,1013.27
2018-12-06T09:45:12.298Z,1013.25
2018-12-06T09:46:12.315Z,1013.27
2018-12-06T09:47:12.266Z,1013.31
2018-12-06T09:48:12.243Z,1013.30
2018-12-06T09:49:12.250Z,1013.31
2018-12-06T09:50:12.228Z,1013.34
2018-12-06T09:51:12.225Z,1013.32
2018-12-06T09:52:12.244Z,1013.36
2018-12-06T09:53:12.197Z,1013.35
2018-12-06T09:54:12.183Z,1013.31
2018-12-06T09:55:12.168Z,1013.36
2018-12-06T09:56:12.177Z,1013.35
2018-12-06T09:57:12.216Z,1013.32
2018-12-06T09:58:12.137Z,1013.28
2018-12-06T09:59:12.127Z,1013.27
2018-12-06T10:00:12.122Z,1013.31
2018-12-06T10:01:12.108Z,1013.32
2018-12-06T10:02:12.112Z,1013.20
2018-12-06T10:03:12.099Z,1013.26
2018-12-06T10:04:12.086Z,1013.21
2018-12-06T10:05:12.059Z,1013.24
2018-12-06T10:06:12.048Z,1013.29
2018-12-06T10:07:12.061Z,1013.30
2018-12-06T10:08:12.068Z,1013.33
2018-12-06T10:09:12.032Z,1013.27
2018-12-06T10:10:12.053Z,1013.30
2018-12-06T10:11:11.998Z,1013.32
2018-12-06T10:12:12.042Z,1013.35
2018-12-06T10:13:12.010Z,1013.36
2018-12-06T10:14:11.966Z,1013.40
2018-12-06T10:15:11.962Z,1013.41
2018-12-06T10:16:11.975Z,1013.43
2018-12-06T10:17:11.929Z,1013.47
2018-12-06T10:18:11.947Z,1013.40
2018-12-06T10:19:11.909Z,1013.47
2018-12-06T10:20:11.899Z,1013.47
2018-12-06T10:21:11.902Z,1013.48
2018-12-06T10:22:11.881Z,1013.52
2018-12-06T10:23:11.906Z,1013.49
2018-12-06T10:24:11.889Z,1013.53
2018-12-06T10:25:11.875Z,1013.55
2018-12-06T10:26:11.841Z,1013.52
2018-12-06T10:27:11.865Z,1013.54
2018-12-06T10:28:11.847Z,1013.47
2018-12-06T10:29:11.803Z,1013.48
2018-12-06T10:30:11.827Z,1013.46
2018-12-06T10:31:11.778Z,1013.50
2018-12-06T10:32:11.780Z,1013.48
2018-12-06T10:33:11.797Z,1013.48
2018-12-06T10:34:11.752Z,1013.47
2018-12-06T10:35:11.763Z,1013.51
2018-12-06T10:36:11.726Z,1013.43
2018-12-06T10:37:11.711Z,1013.48
2018-12-06T10:38:11.712Z,1013.47
2018-12-06T10:39:11.727Z,1013.47
2018-12-06T10:40:11.684Z,1013.52
2018-12-06T10:41:11.679Z,1013.44
2018-12-06T10:42:11.679Z,1013.43
2018-12-06T10:43:11.650Z,1013.40
2018-12-06T10:44:11.661Z,1013.37
2018-12-06T10:45:11.634Z,1013.44
2018-12-06T10:46:11.613Z,1013.38
2018-12-06T10:47:11.671Z,1013.40
2018-12-06T10:48:11.597Z,1013.35
2018-12-06T10:49:11.647Z,1013.33
2018-12-06T10:50:11.573Z,1013.32
2018-12-06T10:51:11.562Z,1013.35
2018-12-06T10:52:11.547Z,1013.38
2018-12-06T10:53:11.538Z,1013.38
2018-12-06T10:54:11.527Z,1013.40
2018-12-06T10:55:11.578Z,1013.39
2018-12-06T10:56:11.508Z,1013.36
2018-12-06T10:57:11.497Z,1013.40
2018-12-06T10:58:11.483Z,1013.47
2018-12-06T10:59:11.470Z,1013.51
2018-12-06T11:00:11.493Z,1013.51
2018-12-06T11:01:11.457Z,1013.54
2018-12-06T11:02:11.453Z,1013.56
2018-12-06T11:03:11.434Z,1013.61
2018-12-06T11:04:11.446Z,1013.68
2018-12-06T11:05:11.435Z,1013.65
2018-12-06T11:06:11.398Z,1013.66
2018-12-06T11:07:11.386Z,1013.64
2018-12-06T11:08:11.384Z,1013.68
2018-12-06T11:09:11.389Z,1013.67
2018-12-06T11:10:11.380Z,1013.66
2018-12-06T11:11:11.346Z,1013.62
2018-12-06T11:12:11.343Z,1013.68
2018-12-06T11:13:11.329Z,1013.66
2018-12-06T11:14:11.317Z,1013.67
2018-12-06T11:15:11.340Z,1013.68
2018-12-06T11:16:11.291Z,1013.66
2018-12-06T11:17:11.280Z,1013.72
2018-12-06T11:18:11.270Z,1013.75
2018-12-06T11:19:11.341Z,1013.74
2018-12-06T11:20:11.283Z,1013.75
2018-12-06T11:21:11.255Z,1013.81
2018-12-06T11:22:11.224Z,1013.82
2018-12-06T11:23:11.214Z,1013.81
2018-12-06T11:24:11.250Z,1013.80
2018-12-06T11:25:11.190Z,1013.77
2018-12-06T11:26:11.179Z,1013.74
2018-12-06T11:27:11.168Z,1013.72
2018-12-06T11:28:11.162Z,1013.73
2018-12-06T11:29:11.156Z,1013.75
2018-12-06T11:30:11.179Z,1013.76
2018-12-06T11:31:11.152Z,1013.71
2018-12-06T11:33:12.238Z,1013.76
2018-12-06T11:34:11.090Z,1013.78
2018-12-06T11:35:11.093Z,1013.78
2018-12-06T11:36:11.097Z,1013.78
2018-12-06T11:37:11.061Z,1013.84
2018-12-06T11:38:11.053Z,1013.85
2018-12-06T11:39:11.074Z,1013.95
2018-12-06T11:40:11.026Z,1013.88
2018-12-06T11:41:11.193Z,1013.87
2018-12-06T11:42:11.008Z,1013.93
2018-12-06T11:43:11.008Z,1013.92
2018-12-06T11:44:11.001Z,1013.90
2018-12-06T11:45:10.994Z,1013.88
2018-12-06T11:46:11.004Z,1013.88
2018-12-06T11:47:10.955Z,1013.82
2018-12-06T11:48:10.941Z,1013.83
2018-12-06T11:49:10.935Z,1013.83
2018-12-06T11:50:10.922Z,1013.82
2018-12-06T11:51:10.913Z,1013.86
2018-12-06T11:52:10.933Z,1013.85
2018-12-06T11:53:10.894Z,1013.84
2018-12-06T11:54:10.929Z,1013.86
2018-12-06T11:55:10.896Z,1013.78
2018-12-06T11:56:10.928Z,1013.80
2018-12-06T11:57:10.893Z,1013.79
2018-12-06T11:58:11.580Z,1013.72
2018-12-06T11:59:10.827Z,1013.74
2018-12-06T12:00:10.818Z,1013.71
2018-12-06T12:01:10.801Z,1013.64
2018-12-06T12:02:10.797Z,1013.61
2018-12-06T12:03:10.814Z,1013.66
2018-12-06T12:04:10.777Z,1013.67
2018-12-06T12:05:10.773Z,1013.56
2018-12-06T12:06:10.757Z,1013.46